sensor_id;sensor_type;location;lat;lon;timestamp;P1;durP1;ratioP1;P2;durP2;ratioP2
14736;SDS011;7459;53.590;10.062;2023-11-19T11:15:43;17.67;;;3.20;;
14736;SDS011;7459;53.590;10.062;2023-11-19T11:18:11;20.33;;;3.63;;
14736;SDS011;7459;53.590;10.062;2023-11-19T11:20:38;23.23;;;3.03;;
14736;SDS011;7459;53.590;10.062;2023-11-19T11:23:19;22.40;;;3.60;;
14736;SDS011;7459;53.590;10.062;2023-11-19T11:32:32;20.15;;;3.55;;
14736;SDS011;7459;53.590;10.062;2023-11-19T11:35:28;25.70;;;3.63;;
14736;SDS011;7459;53.590;10.062;2023-11-19T11:38:16;26.42;;;3.17;;
14736;SDS011;7459;53.590;10.062;2023-11-19T11:43:50;21.90;;;3.05;;
14736;SDS011;7459;53.590;10.062;2023-11-19T11:49:01;23.80;;;3.10;;
14736;SDS011;7459;53.590;10.062;2023-11-19T12:02:19;17.85;;;3.88;;
14736;SDS011;7459;53.590;10.062;2023-11-19T12:04:47;28.35;;;4.05;;
14736;SDS011;7459;53.590;10.062;2023-11-19T12:07:16;26.50;;;3.17;;
14736;SDS011;7459;53.590;10.062;2023-11-19T12:09:48;17.95;;;3.58;;
14736;SDS011;7459;53.590;10.062;2023-11-19T12:12:34;26.75;;;3.85;;
14736;SDS011;7459;53.590;10.062;2023-11-19T12:15:07;35.85;;;4.38;;
14736;SDS011;7459;53.590;10.062;2023-11-19T12:17:43;31.75;;;3.65;;
14736;SDS011;7459;53.590;10.062;2023-11-19T12:20:20;26.70;;;3.50;;
14736;SDS011;7459;53.590;10.062;2023-11-19T12:22:48;26.38;;;3.60;;
14736;SDS011;7459;53.590;10.062;2023-11-19T12:25:16;27.58;;;3.88;;
14736;SDS011;7459;53.590;10.062;2023-11-19T12:27:44;27.08;;;4.20;;
14736;SDS011;7459;53.590;10.062;2023-11-19T12:30:12;31.20;;;3.88;;
14736;SDS011;7459;53.590;10.062;2023-11-19T12:32:51;25.55;;;3.20;;
14736;SDS011;7459;53.590;10.062;2023-11-19T12:35:18;29.48;;;4.10;;
14736;SDS011;7459;53.590;10.062;2023-11-19T12:37:48;25.45;;;3.65;;
14736;SDS011;7459;53.590;10.062;2023-11-19T12:42:46;24.67;;;3.55;;
14736;SDS011;7459;53.590;10.062;2023-11-19T12:45:13;25.20;;;3.30;;
14736;SDS011;7459;53.590;10.062;2023-11-19T12:47:41;26.85;;;3.53;;
14736;SDS011;7459;53.590;10.062;2023-11-19T12:50:14;21.23;;;3.00;;
14736;SDS011;7459;53.590;10.062;2023-11-19T12:52:43;28.65;;;5.28;;
14736;SDS011;7459;53.590;10.062;2023-11-19T12:55:27;24.80;;;2.92;;
14736;SDS011;7459;53.590;10.062;2023-11-19T12:57:54;18.42;;;3.38;;
14736;SDS011;7459;53.590;10.062;2023-11-19T13:00:21;22.88;;;2.63;;
14736;SDS011;7459;53.590;10.062;2023-11-19T13:02:50;25.25;;;3.42;;
14736;SDS011;7459;53.590;10.062;2023-11-19T13:05:27;27.58;;;3.22;;
14736;SDS011;7459;53.590;10.062;2023-11-19T13:08:07;17.67;;;2.47;;
14736;SDS011;7459;53.590;10.062;2023-11-19T13:10:53;21.33;;;3.47;;
14736;SDS011;7459;53.590;10.062;2023-11-19T13:13:19;17.23;;;3.55;;
14736;SDS011;7459;53.590;10.062;2023-11-19T13:15:44;28.42;;;4.22;;
14736;SDS011;7459;53.590;10.062;2023-11-19T13:18:11;27.58;;;2.88;;
14736;SDS011;7459;53.590;10.062;2023-11-19T13:20:37;17.80;;;2.95;;
14736;SDS011;7459;53.590;10.062;2023-11-19T13:23:04;16.83;;;2.75;;
14736;SDS011;7459;53.590;10.062;2023-11-19T13:25:31;21.77;;;3.90;;
14736;SDS011;7459;53.590;10.062;2023-11-19T13:27:57;26.80;;;4.63;;
14736;SDS011;7459;53.590;10.062;2023-11-19T13:30:24;28.67;;;3.83;;
14736;SDS011;7459;53.590;10.062;2023-11-19T13:32:51;22.17;;;3.42;;
14736;SDS011;7459;53.590;10.062;2023-11-19T13:35:19;19.42;;;3.67;;
14736;SDS011;7459;53.590;10.062;2023-11-19T13:37:45;16.67;;;2.97;;
14736;SDS011;7459;53.590;10.062;2023-11-19T13:40:11;18.65;;;3.35;;
14736;SDS011;7459;53.590;10.062;2023-11-19T13:42:43;26.03;;;4.03;;
14736;SDS011;7459;53.590;10.062;2023-11-19T13:45:09;17.27;;;2.38;;
14736;SDS011;7459;53.590;10.062;2023-11-19T13:47:40;20.52;;;4.13;;
14736;SDS011;7459;53.590;10.062;2023-11-19T13:50:11;23.80;;;3.40;;
14736;SDS011;7459;53.590;10.062;2023-11-19T13:52:40;32.10;;;4.20;;
14736;SDS011;7459;53.590;10.062;2023-11-19T13:55:09;20.47;;;2.70;;
14736;SDS011;7459;53.590;10.062;2023-11-19T13:57:35;23.05;;;3.45;;
14736;SDS011;7459;53.590;10.062;2023-11-19T14:00:08;24.88;;;3.22;;
14736;SDS011;7459;53.590;10.062;2023-11-19T14:02:41;25.35;;;3.45;;
14736;SDS011;7459;53.590;10.062;2023-11-19T14:05:08;19.63;;;3.22;;
14736;SDS011;7459;53.590;10.062;2023-11-19T14:07:35;20.93;;;3.00;;
14736;SDS011;7459;53.590;10.062;2023-11-19T14:10:01;20.50;;;4.07;;
14736;SDS011;7459;53.590;10.062;2023-11-19T14:12:28;19.13;;;3.10;;
14736;SDS011;7459;53.590;10.062;2023-11-19T14:14:53;26.15;;;3.92;;
14736;SDS011;7459;53.590;10.062;2023-11-19T14:17:19;25.52;;;3.58;;
14736;SDS011;7459;53.590;10.062;2023-11-19T14:19:45;22.05;;;3.80;;
14736;SDS011;7459;53.590;10.062;2023-11-19T14:22:11;25.23;;;2.77;;
14736;SDS011;7459;53.590;10.062;2023-11-19T14:24:37;25.17;;;3.47;;
14736;SDS011;7459;53.590;10.062;2023-11-19T14:27:03;25.63;;;3.97;;
14736;SDS011;7459;53.590;10.062;2023-11-19T14:29:29;23.93;;;3.97;;
14736;SDS011;7459;53.590;10.062;2023-11-19T14:31:55;22.98;;;2.97;;
14736;SDS011;7459;53.590;10.062;2023-11-19T14:34:22;23.15;;;4.38;;
14736;SDS011;7459;53.590;10.062;2023-11-19T14:36:47;16.70;;;2.67;;
14736;SDS011;7459;53.590;10.062;2023-11-19T14:39:14;20.20;;;3.85;;
14736;SDS011;7459;53.590;10.062;2023-11-19T14:41:40;18.23;;;3.35;;
14736;SDS011;7459;53.590;10.062;2023-11-19T14:44:05;28.42;;;3.22;;
14736;SDS011;7459;53.590;10.062;2023-11-19T14:46:31;22.97;;;2.50;;
14736;SDS011;7459;53.590;10.062;2023-11-19T14:48:57;28.90;;;4.15;;
14736;SDS011;7459;53.590;10.062;2023-11-19T14:51:23;16.67;;;2.80;;
14736;SDS011;7459;53.590;10.062;2023-11-19T14:53:49;29.00;;;3.83;;
14736;SDS011;7459;53.590;10.062;2023-11-19T14:56:15;24.37;;;3.90;;
14736;SDS011;7459;53.590;10.062;2023-11-19T14:58:41;18.25;;;2.17;;
14736;SDS011;7459;53.590;10.062;2023-11-19T15:01:07;21.25;;;3.47;;
14736;SDS011;7459;53.590;10.062;2023-11-19T15:03:37;14.83;;;1.67;;
14736;SDS011;7459;53.590;10.062;2023-11-19T15:06:02;9.98;;;1.30;;
14736;SDS011;7459;53.590;10.062;2023-11-19T15:08:28;6.77;;;1.83;;
14736;SDS011;7459;53.590;10.062;2023-11-19T15:10:55;6.30;;;1.33;;
14736;SDS011;7459;53.590;10.062;2023-11-19T15:13:23;8.30;;;1.38;;
14736;SDS011;7459;53.590;10.062;2023-11-19T15:15:49;7.82;;;1.08;;
14736;SDS011;7459;53.590;10.062;2023-11-19T15:18:15;4.40;;;1.23;;
14736;SDS011;7459;53.590;10.062;2023-11-19T15:20:42;11.10;;;1.98;;
14736;SDS011;7459;53.590;10.062;2023-11-19T15:23:12;5.10;;;1.00;;
14736;SDS011;7459;53.590;10.062;2023-11-19T15:25:38;5.18;;;0.45;;
14736;SDS011;7459;53.590;10.062;2023-11-19T15:28:04;7.37;;;1.30;;
14736;SDS011;7459;53.590;10.062;2023-11-19T15:30:30;10.57;;;0.93;;
14736;SDS011;7459;53.590;10.062;2023-11-19T15:32:55;4.60;;;0.80;;
14736;SDS011;7459;53.590;10.062;2023-11-19T15:35:21;6.40;;;1.25;;
14736;SDS011;7459;53.590;10.062;2023-11-19T15:37:47;8.93;;;1.67;;
14736;SDS011;7459;53.590;10.062;2023-11-19T15:40:13;10.35;;;1.35;;
14736;SDS011;7459;53.590;10.062;2023-11-19T15:42:39;9.02;;;1.27;;
14736;SDS011;7459;53.590;10.062;2023-11-19T15:45:05;6.53;;;1.38;;
14736;SDS011;7459;53.590;10.062;2023-11-19T15:47:32;10.00;;;1.70;;
14736;SDS011;7459;53.590;10.062;2023-11-19T15:50:00;9.35;;;1.70;;
14736;SDS011;7459;53.590;10.062;2023-11-19T15:52:28;12.02;;;1.58;;
14736;SDS011;7459;53.590;10.062;2023-11-19T15:54:54;12.90;;;1.83;;
14736;SDS011;7459;53.590;10.062;2023-11-19T15:57:21;15.68;;;1.77;;
14736;SDS011;7459;53.590;10.062;2023-11-19T15:59:47;16.05;;;2.03;;
14736;SDS011;7459;53.590;10.062;2023-11-19T16:02:16;15.65;;;2.25;;
14736;SDS011;7459;53.590;10.062;2023-11-19T16:04:42;12.30;;;2.63;;
14736;SDS011;7459;53.590;10.062;2023-11-19T16:07:12;19.97;;;1.90;;
14736;SDS011;7459;53.590;10.062;2023-11-19T16:09:39;14.75;;;2.00;;
14736;SDS011;7459;53.590;10.062;2023-11-19T16:12:06;19.60;;;2.55;;
14736;SDS011;7459;53.590;10.062;2023-11-19T16:14:33;18.58;;;2.35;;
14736;SDS011;7459;53.590;10.062;2023-11-19T16:16:59;12.65;;;2.83;;
14736;SDS011;7459;53.590;10.062;2023-11-19T16:19:25;17.17;;;2.27;;
14736;SDS011;7459;53.590;10.062;2023-11-19T16:21:51;23.33;;;3.38;;
14736;SDS011;7459;53.590;10.062;2023-11-19T16:24:20;24.88;;;2.75;;
14736;SDS011;7459;53.590;10.062;2023-11-19T16:26:46;12.43;;;2.83;;
14736;SDS011;7459;53.590;10.062;2023-11-19T16:29:11;21.13;;;2.75;;
14736;SDS011;7459;53.590;10.062;2023-11-19T16:31:37;22.33;;;2.30;;
14736;SDS011;7459;53.590;10.062;2023-11-19T16:34:03;16.85;;;2.75;;
14736;SDS011;7459;53.590;10.062;2023-11-19T16:36:32;21.52;;;2.60;;
14736;SDS011;7459;53.590;10.062;2023-11-19T16:38:57;20.33;;;2.70;;
14736;SDS011;7459;53.590;10.062;2023-11-19T16:41:23;14.70;;;2.05;;
14736;SDS011;7459;53.590;10.062;2023-11-19T16:43:49;20.40;;;2.57;;
14736;SDS011;7459;53.590;10.062;2023-11-19T16:46:16;25.00;;;2.75;;
14736;SDS011;7459;53.590;10.062;2023-11-19T16:48:45;19.52;;;2.58;;
14736;SDS011;7459;53.590;10.062;2023-11-19T16:51:13;17.92;;;2.47;;
14736;SDS011;7459;53.590;10.062;2023-11-19T16:53:45;23.85;;;3.13;;
14736;SDS011;7459;53.590;10.062;2023-11-19T16:56:13;15.90;;;2.30;;
14736;SDS011;7459;53.590;10.062;2023-11-19T16:58:39;19.55;;;2.60;;
14736;SDS011;7459;53.590;10.062;2023-11-19T17:01:09;17.63;;;2.05;;
14736;SDS011;7459;53.590;10.062;2023-11-19T17:03:36;15.23;;;2.28;;
14736;SDS011;7459;53.590;10.062;2023-11-19T17:06:02;14.10;;;2.20;;
14736;SDS011;7459;53.590;10.062;2023-11-19T17:08:29;16.75;;;2.05;;
14736;SDS011;7459;53.590;10.062;2023-11-19T17:10:58;14.68;;;2.10;;
14736;SDS011;7459;53.590;10.062;2023-11-19T17:13:28;14.45;;;2.25;;
14736;SDS011;7459;53.590;10.062;2023-11-19T17:15:55;12.05;;;2.03;;
14736;SDS011;7459;53.590;10.062;2023-11-19T17:18:21;13.25;;;2.33;;
14736;SDS011;7459;53.590;10.062;2023-11-19T17:20:48;15.25;;;1.90;;
14736;SDS011;7459;53.590;10.062;2023-11-19T17:23:14;14.25;;;2.38;;
14736;SDS011;7459;53.590;10.062;2023-11-19T17:25:40;23.15;;;2.42;;
14736;SDS011;7459;53.590;10.062;2023-11-19T17:28:06;15.00;;;1.57;;
14736;SDS011;7459;53.590;10.062;2023-11-19T17:30:35;14.75;;;1.92;;
14736;SDS011;7459;53.590;10.062;2023-11-19T17:33:02;14.38;;;2.85;;
14736;SDS011;7459;53.590;10.062;2023-11-19T17:35:31;13.50;;;1.85;;
14736;SDS011;7459;53.590;10.062;2023-11-19T17:37:58;18.63;;;4.13;;
14736;SDS011;7459;53.590;10.062;2023-11-19T17:40:25;24.80;;;7.72;;
14736;SDS011;7459;53.590;10.062;2023-11-19T17:42:53;14.35;;;4.25;;
14736;SDS011;7459;53.590;10.062;2023-11-19T17:45:19;17.65;;;3.17;;
14736;SDS011;7459;53.590;10.062;2023-11-19T17:47:45;10.85;;;1.58;;
14736;SDS011;7459;53.590;10.062;2023-11-19T17:50:11;12.40;;;1.67;;
14736;SDS011;7459;53.590;10.062;2023-11-19T17:52:37;11.40;;;1.98;;
14736;SDS011;7459;53.590;10.062;2023-11-19T17:55:03;5.43;;;1.40;;
14736;SDS011;7459;53.590;10.062;2023-11-19T17:57:32;13.75;;;1.40;;
14736;SDS011;7459;53.590;10.062;2023-11-19T17:59:58;7.03;;;1.52;;
14736;SDS011;7459;53.590;10.062;2023-11-19T18:02:24;12.25;;;1.55;;
14736;SDS011;7459;53.590;10.062;2023-11-19T18:04:49;11.00;;;1.43;;
14736;SDS011;7459;53.590;10.062;2023-11-19T18:07:15;11.07;;;1.50;;
14736;SDS011;7459;53.590;10.062;2023-11-19T18:09:45;14.25;;;2.42;;
14736;SDS011;7459;53.590;10.062;2023-11-19T18:12:11;8.93;;;1.40;;
14736;SDS011;7459;53.590;10.062;2023-11-19T18:14:37;9.87;;;1.73;;
14736;SDS011;7459;53.590;10.062;2023-11-19T18:17:04;10.52;;;1.50;;
14736;SDS011;7459;53.590;10.062;2023-11-19T18:19:30;12.65;;;1.30;;
14736;SDS011;7459;53.590;10.062;2023-11-19T18:21:56;8.90;;;1.35;;
14736;SDS011;7459;53.590;10.062;2023-11-19T18:24:25;11.07;;;2.00;;
14736;SDS011;7459;53.590;10.062;2023-11-19T18:26:51;11.55;;;1.70;;
14736;SDS011;7459;53.590;10.062;2023-11-19T18:29:17;8.98;;;1.67;;
14736;SDS011;7459;53.590;10.062;2023-11-19T18:31:43;13.93;;;2.17;;
14736;SDS011;7459;53.590;10.062;2023-11-19T18:34:09;11.43;;;2.13;;
14736;SDS011;7459;53.590;10.062;2023-11-19T18:36:35;14.00;;;1.90;;
14736;SDS011;7459;53.590;10.062;2023-11-19T18:39:02;13.43;;;2.13;;
14736;SDS011;7459;53.590;10.062;2023-11-19T18:41:34;10.50;;;1.92;;
14736;SDS011;7459;53.590;10.062;2023-11-19T18:44:01;13.35;;;2.40;;
14736;SDS011;7459;53.590;10.062;2023-11-19T18:46:27;11.50;;;2.20;;
14736;SDS011;7459;53.590;10.062;2023-11-19T18:48:53;10.85;;;1.92;;
14736;SDS011;7459;53.590;10.062;2023-11-19T18:51:19;13.00;;;1.98;;
14736;SDS011;7459;53.590;10.062;2023-11-19T18:53:45;15.70;;;2.75;;
14736;SDS011;7459;53.590;10.062;2023-11-19T18:56:11;12.30;;;2.25;;
14736;SDS011;7459;53.590;10.062;2023-11-19T18:58:38;12.82;;;2.75;;
14736;SDS011;7459;53.590;10.062;2023-11-19T19:01:04;16.17;;;3.03;;
14736;SDS011;7459;53.590;10.062;2023-11-19T19:03:30;18.35;;;3.08;;
14736;SDS011;7459;53.590;10.062;2023-11-19T19:05:58;20.20;;;3.38;;
14736;SDS011;7459;53.590;10.062;2023-11-19T19:08:24;17.42;;;3.42;;
14736;SDS011;7459;53.590;10.062;2023-11-19T19:10:49;17.20;;;2.73;;
14736;SDS011;7459;53.590;10.062;2023-11-19T19:13:15;16.63;;;2.97;;
14736;SDS011;7459;53.590;10.062;2023-11-19T19:15:41;14.97;;;2.60;;
14736;SDS011;7459;53.590;10.062;2023-11-19T19:18:06;13.68;;;2.80;;
14736;SDS011;7459;53.590;10.062;2023-11-19T19:20:32;18.10;;;4.10;;
14736;SDS011;7459;53.590;10.062;2023-11-19T19:22:59;21.65;;;4.55;;
14736;SDS011;7459;53.590;10.062;2023-11-19T19:25:25;16.50;;;3.50;;
14736;SDS011;7459;53.590;10.062;2023-11-19T19:27:54;21.83;;;5.13;;
14736;SDS011;7459;53.590;10.062;2023-11-19T19:30:20;18.27;;;4.30;;
14736;SDS011;7459;53.590;10.062;2023-11-19T19:32:47;21.92;;;4.28;;
14736;SDS011;7459;53.590;10.062;2023-11-19T19:35:13;18.67;;;3.78;;
14736;SDS011;7459;53.590;10.062;2023-11-19T19:37:39;21.00;;;4.22;;
14736;SDS011;7459;53.590;10.062;2023-11-19T19:40:05;13.77;;;3.37;;
14736;SDS011;7459;53.590;10.062;2023-11-19T19:42:31;16.15;;;4.03;;
14736;SDS011;7459;53.590;10.062;2023-11-19T19:44:58;22.60;;;3.45;;
14736;SDS011;7459;53.590;10.062;2023-11-19T19:47:24;21.83;;;4.40;;
14736;SDS011;7459;53.590;10.062;2023-11-19T19:49:50;18.30;;;3.73;;
14736;SDS011;7459;53.590;10.062;2023-11-19T19:52:16;21.10;;;5.53;;
14736;SDS011;7459;53.590;10.062;2023-11-19T19:54:41;18.17;;;3.97;;
14736;SDS011;7459;53.590;10.062;2023-11-19T19:57:07;20.08;;;3.80;;
14736;SDS011;7459;53.590;10.062;2023-11-19T19:59:33;21.87;;;4.93;;
14736;SDS011;7459;53.590;10.062;2023-11-19T20:01:59;18.02;;;4.22;;
14736;SDS011;7459;53.590;10.062;2023-11-19T20:04:26;17.20;;;4.75;;
14736;SDS011;7459;53.590;10.062;2023-11-19T20:06:52;13.15;;;3.78;;
14736;SDS011;7459;53.590;10.062;2023-11-19T20:09:18;16.23;;;4.37;;
14736;SDS011;7459;53.590;10.062;2023-11-19T20:11:44;17.73;;;5.07;;
14736;SDS011;7459;53.590;10.062;2023-11-19T20:14:12;17.88;;;4.05;;
14736;SDS011;7459;53.590;10.062;2023-11-19T20:16:39;16.35;;;4.50;;
14736;SDS011;7459;53.590;10.062;2023-11-19T20:19:05;18.27;;;4.90;;
14736;SDS011;7459;53.590;10.062;2023-11-19T20:21:30;16.88;;;4.38;;
14736;SDS011;7459;53.590;10.062;2023-11-19T20:23:56;17.13;;;4.67;;
14736;SDS011;7459;53.590;10.062;2023-11-19T20:26:23;16.33;;;4.07;;
14736;SDS011;7459;53.590;10.062;2023-11-19T20:28:49;18.88;;;4.47;;
14736;SDS011;7459;53.590;10.062;2023-11-19T20:31:14;18.63;;;5.07;;
14736;SDS011;7459;53.590;10.062;2023-11-19T20:33:42;18.23;;;3.85;;
14736;SDS011;7459;53.590;10.062;2023-11-19T20:36:09;12.60;;;4.53;;
14736;SDS011;7459;53.590;10.062;2023-11-19T20:38:35;17.37;;;5.03;;
14736;SDS011;7459;53.590;10.062;2023-11-19T20:41:02;17.35;;;4.68;;
14736;SDS011;7459;53.590;10.062;2023-11-19T20:43:28;17.02;;;4.20;;
14736;SDS011;7459;53.590;10.062;2023-11-19T20:45:54;15.53;;;4.57;;
14736;SDS011;7459;53.590;10.062;2023-11-19T20:48:19;18.33;;;4.88;;
14736;SDS011;7459;53.590;10.062;2023-11-19T20:50:46;13.07;;;3.88;;
14736;SDS011;7459;53.590;10.062;2023-11-19T20:53:12;20.42;;;4.70;;
14736;SDS011;7459;53.590;10.062;2023-11-19T20:55:38;21.03;;;4.70;;
14736;SDS011;7459;53.590;10.062;2023-11-19T20:58:04;14.63;;;3.85;;
14736;SDS011;7459;53.590;10.062;2023-11-19T21:00:33;17.33;;;3.90;;
14736;SDS011;7459;53.590;10.062;2023-11-19T21:02:59;16.27;;;4.47;;
14736;SDS011;7459;53.590;10.062;2023-11-19T21:05:25;27.17;;;4.88;;
14736;SDS011;7459;53.590;10.062;2023-11-19T21:07:50;19.83;;;4.70;;
14736;SDS011;7459;53.590;10.062;2023-11-19T21:10:16;22.50;;;4.33;;
14736;SDS011;7459;53.590;10.062;2023-11-19T21:12:42;22.00;;;4.18;;
14736;SDS011;7459;53.590;10.062;2023-11-19T21:15:08;17.80;;;4.20;;
14736;SDS011;7459;53.590;10.062;2023-11-19T21:17:34;20.23;;;4.85;;
14736;SDS011;7459;53.590;10.062;2023-11-19T21:20:00;16.80;;;3.93;;
14736;SDS011;7459;53.590;10.062;2023-11-19T21:22:26;19.63;;;5.00;;
14736;SDS011;7459;53.590;10.062;2023-11-19T21:24:51;16.20;;;5.07;;
14736;SDS011;7459;53.590;10.062;2023-11-19T21:27:18;20.33;;;3.67;;
14736;SDS011;7459;53.590;10.062;2023-11-19T21:29:44;20.00;;;4.95;;
14736;SDS011;7459;53.590;10.062;2023-11-19T21:32:10;18.05;;;3.83;;
14736;SDS011;7459;53.590;10.062;2023-11-19T21:34:36;12.43;;;4.13;;
14736;SDS011;7459;53.590;10.062;2023-11-19T21:37:02;13.27;;;3.70;;
14736;SDS011;7459;53.590;10.062;2023-11-19T21:39:29;13.15;;;3.08;;
14736;SDS011;7459;53.590;10.062;2023-11-19T21:41:54;15.77;;;3.78;;
14736;SDS011;7459;53.590;10.062;2023-11-19T21:44:20;13.23;;;3.50;;
14736;SDS011;7459;53.590;10.062;2023-11-19T21:46:47;14.40;;;3.72;;
14736;SDS011;7459;53.590;10.062;2023-11-19T21:49:13;9.45;;;2.75;;
14736;SDS011;7459;53.590;10.062;2023-11-19T21:51:39;12.30;;;3.57;;
14736;SDS011;7459;53.590;10.062;2023-11-19T21:54:06;12.20;;;3.30;;
14736;SDS011;7459;53.590;10.062;2023-11-19T21:56:31;14.88;;;4.40;;
14736;SDS011;7459;53.590;10.062;2023-11-19T21:58:57;14.53;;;4.40;;
14736;SDS011;7459;53.590;10.062;2023-11-19T22:01:23;17.85;;;4.53;;
14736;SDS011;7459;53.590;10.062;2023-11-19T22:03:49;17.30;;;4.40;;
14736;SDS011;7459;53.590;10.062;2023-11-19T22:06:18;19.38;;;4.85;;
14736;SDS011;7459;53.590;10.062;2023-11-19T22:08:44;15.30;;;4.50;;
14736;SDS011;7459;53.590;10.062;2023-11-19T22:11:11;21.77;;;4.80;;
14736;SDS011;7459;53.590;10.062;2023-11-19T22:13:37;13.57;;;5.07;;
14736;SDS011;7459;53.590;10.062;2023-11-19T22:16:03;16.35;;;4.57;;
14736;SDS011;7459;53.590;10.062;2023-11-19T22:18:30;18.43;;;4.67;;
14736;SDS011;7459;53.590;10.062;2023-11-19T22:20:55;17.48;;;5.07;;
14736;SDS011;7459;53.590;10.062;2023-11-19T22:23:21;17.30;;;5.50;;
14736;SDS011;7459;53.590;10.062;2023-11-19T22:25:47;18.92;;;6.07;;
14736;SDS011;7459;53.590;10.062;2023-11-19T22:28:13;21.27;;;6.63;;
14736;SDS011;7459;53.590;10.062;2023-11-19T22:30:39;24.17;;;5.28;;
14736;SDS011;7459;53.590;10.062;2023-11-19T22:33:06;25.38;;;6.47;;
14736;SDS011;7459;53.590;10.062;2023-11-19T22:35:32;18.90;;;5.93;;
14736;SDS011;7459;53.590;10.062;2023-11-19T22:38:01;20.08;;;6.35;;
14736;SDS011;7459;53.590;10.062;2023-11-19T22:40:27;18.77;;;5.68;;
14736;SDS011;7459;53.590;10.062;2023-11-19T22:42:52;23.83;;;5.75;;
14736;SDS011;7459;53.590;10.062;2023-11-19T22:45:18;19.73;;;5.00;;
14736;SDS011;7459;53.590;10.062;2023-11-19T22:47:45;22.42;;;5.95;;
14736;SDS011;7459;53.590;10.062;2023-11-19T22:50:10;19.07;;;4.93;;
14736;SDS011;7459;53.590;10.062;2023-11-19T22:52:36;24.92;;;5.90;;
14736;SDS011;7459;53.590;10.062;2023-11-19T22:55:03;12.88;;;4.85;;
14736;SDS011;7459;53.590;10.062;2023-11-19T22:57:30;16.23;;;5.30;;
14736;SDS011;7459;53.590;10.062;2023-11-19T22:59:57;17.67;;;5.82;;
14736;SDS011;7459;53.590;10.062;2023-11-19T23:02:23;21.88;;;5.97;;
14736;SDS011;7459;53.590;10.062;2023-11-19T23:04:49;19.05;;;5.18;;
14736;SDS011;7459;53.590;10.062;2023-11-19T23:07:15;22.58;;;6.32;;
14736;SDS011;7459;53.590;10.062;2023-11-19T23:09:41;15.70;;;5.10;;
14736;SDS011;7459;53.590;10.062;2023-11-19T23:12:08;18.13;;;6.25;;
14736;SDS011;7459;53.590;10.062;2023-11-19T23:14:35;18.30;;;5.97;;
14736;SDS011;7459;53.590;10.062;2023-11-19T23:17:01;16.58;;;5.90;;
14736;SDS011;7459;53.590;10.062;2023-11-19T23:19:28;17.83;;;6.65;;
14736;SDS011;7459;53.590;10.062;2023-11-19T23:21:58;13.05;;;5.13;;
14736;SDS011;7459;53.590;10.062;2023-11-19T23:24:23;16.05;;;5.05;;
14736;SDS011;7459;53.590;10.062;2023-11-19T23:26:49;15.60;;;5.63;;
14736;SDS011;7459;53.590;10.062;2023-11-19T23:29:15;11.75;;;5.22;;
14736;SDS011;7459;53.590;10.062;2023-11-19T23:31:40;16.47;;;5.30;;
14736;SDS011;7459;53.590;10.062;2023-11-19T23:34:06;14.65;;;5.22;;
14736;SDS011;7459;53.590;10.062;2023-11-19T23:36:32;17.97;;;5.93;;
14736;SDS011;7459;53.590;10.062;2023-11-19T23:38:57;13.40;;;5.23;;
14736;SDS011;7459;53.590;10.062;2023-11-19T23:41:23;15.05;;;6.40;;
14736;SDS011;7459;53.590;10.062;2023-11-19T23:43:49;18.97;;;6.53;;
14736;SDS011;7459;53.590;10.062;2023-11-19T23:46:15;18.55;;;6.18;;
14736;SDS011;7459;53.590;10.062;2023-11-19T23:48:41;17.48;;;5.50;;
14736;SDS011;7459;53.590;10.062;2023-11-19T23:51:07;15.88;;;5.88;;
14736;SDS011;7459;53.590;10.062;2023-11-19T23:53:34;20.13;;;5.82;;
14736;SDS011;7459;53.590;10.062;2023-11-19T23:56:00;16.83;;;6.03;;
14736;SDS011;7459;53.590;10.062;2023-11-19T23:58:26;14.05;;;5.40;;
